Terminal Aerodrome Forecast
Issued by NWS Lake Charles, LA

Home | Current Version | Previous Version | Text Only | Print | Product List | Glossary On
Versions: 1 2 3 4 5 6 7 8 9 10 11 12 13 14 15
415
FTUS44 KLCH 220319 AAA
TAFARA
TAF AMD
KARA 220319Z 2203/2224 03008KT P6SM VCSH SCT035 BKN050
      TEMPO 2203/2206 -SHRA BKN025
     FM220600 02010KT P6SM VCSH BKN050
     FM221500 01014G22KT P6SM SCT035=

USA.gov is the U.S. government's official web portal to all federal, state and local government web resources and services.